createdAt,value
2023-04-19T00:01:50.868Z,8.40
2023-04-19T00:04:19.276Z,8.40
2023-04-19T00:06:47.493Z,8.30
2023-04-19T00:09:15.476Z,8.20
2023-04-19T00:11:44.822Z,8.10
2023-04-19T00:14:13.011Z,8.00
2023-04-19T00:16:42.046Z,7.90
2023-04-19T00:19:10.589Z,7.90
2023-04-19T00:21:38.557Z,7.80
2023-04-19T00:24:07.389Z,7.80
2023-04-19T00:26:35.373Z,7.70
2023-04-19T00:29:05.004Z,7.70
2023-04-19T00:31:33.158Z,7.70
2023-04-19T00:34:01.191Z,7.60
2023-04-19T00:36:30.862Z,7.60
2023-04-19T00:38:59.060Z,7.60
2023-04-19T00:41:27.169Z,7.50
2023-04-19T00:43:55.318Z,7.40
2023-04-19T00:46:25.195Z,7.40
2023-04-19T00:48:53.212Z,7.30
2023-04-19T00:51:21.521Z,7.30
2023-04-19T00:53:49.972Z,7.20
2023-04-19T00:56:18.877Z,7.20
2023-04-19T00:58:47.836Z,7.10
2023-04-19T01:01:16.026Z,7.00
2023-04-19T01:03:45.879Z,7.00
2023-04-19T01:06:14.496Z,6.90
2023-04-19T01:08:42.549Z,6.90
2023-04-19T01:11:10.761Z,7.00
2023-04-19T01:13:38.978Z,6.70
2023-04-19T01:16:08.403Z,6.70
2023-04-19T01:18:37.814Z,6.70
2023-04-19T01:21:08.780Z,6.70
2023-04-19T01:23:39.251Z,6.70
2023-04-19T01:26:07.623Z,6.70
2023-04-19T01:28:35.891Z,6.60
2023-04-19T01:31:04.047Z,6.60
2023-04-19T01:33:32.043Z,6.60
2023-04-19T01:35:59.990Z,6.60
2023-04-19T01:38:28.072Z,6.50
2023-04-19T01:40:57.378Z,6.50
2023-04-19T01:43:25.708Z,6.50
2023-04-19T01:45:53.764Z,6.50
2023-04-19T01:48:21.755Z,6.40
2023-04-19T01:50:49.730Z,6.40
2023-04-19T01:53:18.150Z,6.40
2023-04-19T01:55:46.360Z,6.40
2023-04-19T01:58:15.949Z,6.40
2023-04-19T02:00:43.984Z,6.40
2023-04-19T02:03:12.360Z,6.40
2023-04-19T02:05:40.925Z,6.40
2023-04-19T02:08:08.980Z,6.50
2023-04-19T02:10:36.993Z,6.50
2023-04-19T02:13:05.080Z,6.50
2023-04-19T02:15:34.445Z,6.40
2023-04-19T02:18:02.547Z,6.50
2023-04-19T02:20:31.282Z,6.50
2023-04-19T02:22:59.406Z,6.60
2023-04-19T02:25:27.651Z,6.50
2023-04-19T02:27:55.624Z,6.60
2023-04-19T02:30:23.997Z,6.70
2023-04-19T02:32:55.004Z,6.60
2023-04-19T02:35:23.200Z,6.60
2023-04-19T02:37:51.444Z,6.60
2023-04-19T02:40:19.819Z,6.60
2023-04-19T02:42:47.780Z,6.70
2023-04-19T02:45:15.983Z,6.80
2023-04-19T02:47:43.999Z,6.80
2023-04-19T02:50:13.993Z,6.90
2023-04-19T02:52:42.095Z,6.90
2023-04-19T02:55:10.973Z,6.90
2023-04-19T02:57:38.926Z,7.00
2023-04-19T03:00:10.302Z,7.00
2023-04-19T03:02:39.697Z,7.00
2023-04-19T03:05:08.904Z,6.90
2023-04-19T03:07:38.285Z,6.90
2023-04-19T03:10:07.692Z,6.80
2023-04-19T03:12:35.871Z,6.80
2023-04-19T03:15:04.095Z,6.80
2023-04-19T03:17:32.364Z,6.90
2023-04-19T03:20:00.500Z,6.90
2023-04-19T03:22:28.660Z,6.90
2023-04-19T03:24:58.205Z,6.90
2023-04-19T03:27:26.300Z,6.80
2023-04-19T03:29:54.316Z,6.80
2023-04-19T03:32:22.363Z,6.80
2023-04-19T03:34:50.569Z,6.80
2023-04-19T03:37:18.566Z,6.80
2023-04-19T03:39:46.563Z,6.80
2023-04-19T03:42:16.048Z,6.80
2023-04-19T03:44:44.123Z,6.90
2023-04-19T03:47:12.220Z,6.90
2023-04-19T03:49:40.199Z,6.80
2023-04-19T03:52:08.247Z,6.70
2023-04-19T03:54:36.309Z,6.70
2023-04-19T03:57:04.501Z,6.80
2023-04-19T03:59:33.956Z,6.80
2023-04-19T04:02:02.363Z,6.80
2023-04-19T04:04:30.706Z,6.90
2023-04-19T04:06:59.036Z,7.00
2023-04-19T04:09:27.083Z,7.10
2023-04-19T04:11:55.201Z,7.10
2023-04-19T04:14:23.183Z,7.30
2023-04-19T04:16:52.722Z,7.20
2023-04-19T04:19:22.058Z,7.30
2023-04-19T04:21:50.433Z,7.30
2023-04-19T04:24:20.383Z,7.40
2023-04-19T04:26:49.881Z,7.40
2023-04-19T04:29:18.165Z,7.50
2023-04-19T04:31:46.427Z,7.40
2023-04-19T04:34:16.481Z,7.50
2023-04-19T04:36:44.582Z,7.50
2023-04-19T04:39:13.155Z,7.40
2023-04-19T04:41:42.445Z,7.40
2023-04-19T04:44:23.426Z,7.40
2023-04-19T04:46:51.652Z,7.20
2023-04-19T04:49:21.144Z,7.20
2023-04-19T04:51:49.167Z,7.40
2023-04-19T04:54:17.409Z,7.20
2023-04-19T04:56:45.864Z,7.20
2023-04-19T04:59:13.914Z,7.20
2023-04-19T05:01:42.273Z,7.10
2023-04-19T05:04:10.431Z,7.10
2023-04-19T05:06:40.938Z,7.20
2023-04-19T05:09:09.171Z,7.20
2023-04-19T05:11:37.282Z,7.20
2023-04-19T05:14:05.659Z,7.20
2023-04-19T05:16:34.479Z,7.30
2023-04-19T05:19:02.468Z,7.30
2023-04-19T05:21:30.899Z,7.30
2023-04-19T05:24:00.371Z,7.40
2023-04-19T05:26:28.486Z,7.40
2023-04-19T05:28:56.858Z,7.40
2023-04-19T05:31:25.153Z,7.50
2023-04-19T05:33:53.230Z,7.50
2023-04-19T05:36:21.500Z,7.50
2023-04-19T05:38:49.663Z,7.60
2023-04-19T05:41:18.998Z,7.50
2023-04-19T05:43:46.971Z,7.50
2023-04-19T05:46:15.111Z,7.50
2023-04-19T05:48:43.136Z,7.50
2023-04-19T05:51:11.349Z,7.50
2023-04-19T05:53:39.367Z,7.50
2023-04-19T05:56:08.045Z,7.50
2023-04-19T05:58:37.689Z,7.50
2023-04-19T06:01:06.163Z,7.50
2023-04-19T06:03:34.591Z,7.50
2023-04-19T06:06:02.975Z,7.50
2023-04-19T06:08:31.847Z,7.50
2023-04-19T06:11:05.196Z,7.40
2023-04-19T06:13:45.117Z,7.40
2023-04-19T06:16:13.380Z,7.30
2023-04-19T06:18:43.293Z,7.30
2023-04-19T06:21:11.439Z,7.30
2023-04-19T06:23:39.517Z,7.40
2023-04-19T06:26:07.495Z,7.40
2023-04-19T06:28:35.460Z,7.40
2023-04-19T06:31:06.581Z,7.50
2023-04-19T06:33:34.563Z,7.50
2023-04-19T06:36:02.539Z,7.60
2023-04-19T06:38:31.234Z,7.60
2023-04-19T06:40:59.217Z,7.60
2023-04-19T06:43:27.234Z,7.60
2023-04-19T06:45:59.684Z,7.60
2023-04-19T06:48:29.265Z,7.60
2023-04-19T06:50:57.535Z,7.70
2023-04-19T06:53:26.805Z,7.80
2023-04-19T06:56:01.043Z,7.60
2023-04-19T06:58:29.447Z,7.60
2023-04-19T07:00:57.516Z,7.60
2023-04-19T07:03:25.998Z,7.60
2023-04-19T07:05:56.565Z,7.50
2023-04-19T07:08:27.868Z,7.50
2023-04-19T07:11:00.325Z,7.50
2023-04-19T07:13:28.360Z,7.50
2023-04-19T07:15:56.555Z,7.50
2023-04-19T07:18:24.708Z,7.50
2023-04-19T07:20:55.018Z,7.50
2023-04-19T07:23:22.985Z,7.50
2023-04-19T07:25:50.937Z,7.60
2023-04-19T07:28:18.979Z,7.60
2023-04-19T07:30:46.929Z,7.70
2023-04-19T07:33:14.966Z,7.70
2023-04-19T07:35:42.982Z,7.70
2023-04-19T07:38:12.641Z,7.80
2023-04-19T07:40:40.718Z,8.00
2023-04-19T07:43:08.746Z,7.90
2023-04-19T07:45:36.900Z,7.90
2023-04-19T07:48:05.207Z,8.00
2023-04-19T07:50:33.261Z,8.00
2023-04-19T07:53:01.270Z,8.00
2023-04-19T07:55:30.861Z,8.10
2023-04-19T07:57:58.869Z,8.00
2023-04-19T08:00:26.987Z,8.00
2023-04-19T08:02:55.395Z,8.00
2023-04-19T08:05:24.092Z,8.00
2023-04-19T08:07:53.479Z,8.00
2023-04-19T08:10:22.499Z,7.90
2023-04-19T08:13:05.014Z,8.00
2023-04-19T08:18:05.981Z,8.00
2023-04-19T08:20:34.164Z,7.90
2023-04-19T08:23:07.585Z,8.00
2023-04-19T08:25:42.637Z,8.00
2023-04-19T08:28:12.585Z,8.10
2023-04-19T08:30:41.608Z,8.20
2023-04-19T08:33:09.656Z,8.20
2023-04-19T08:35:40.994Z,8.20
2023-04-19T08:38:09.040Z,8.30
2023-04-19T08:40:39.276Z,8.20
2023-04-19T08:43:07.942Z,8.30
2023-04-19T08:45:38.275Z,8.20
2023-04-19T08:48:07.060Z,8.30
2023-04-19T08:50:45.631Z,8.30
2023-04-19T08:53:25.351Z,8.40
2023-04-19T08:56:12.962Z,8.40
2023-04-19T09:03:59.485Z,8.50
2023-04-19T09:06:37.481Z,8.50
2023-04-19T09:11:53.385Z,8.60
2023-04-19T09:14:23.091Z,8.60
2023-04-19T09:16:53.096Z,8.70
2023-04-19T09:19:25.166Z,8.70
2023-04-19T09:21:54.901Z,8.90
2023-04-19T09:25:14.561Z,8.80
2023-04-19T09:27:29.019Z,8.90
2023-04-19T09:29:57.705Z,8.90
2023-04-19T09:32:27.667Z,8.90
2023-04-19T09:34:57.216Z,9.00
2023-04-19T09:37:39.129Z,9.00
2023-04-19T09:40:28.111Z,9.00
2023-04-19T09:45:30.589Z,9.10
2023-04-19T09:48:04.881Z,9.00
2023-04-19T09:50:34.051Z,9.10
2023-04-19T09:53:12.000Z,8.90
2023-04-19T09:55:52.556Z,9.10
2023-04-19T09:58:34.462Z,9.10
2023-04-19T10:01:15.132Z,9.10
2023-04-19T10:03:48.080Z,9.10
2023-04-19T10:06:37.326Z,9.20
2023-04-19T10:09:06.776Z,9.20
2023-04-19T10:11:40.103Z,9.10
2023-04-19T10:14:19.475Z,9.20
2023-04-19T10:16:48.013Z,9.20
2023-04-19T10:19:20.101Z,9.10
2023-04-19T10:21:49.648Z,9.30
2023-04-19T10:24:18.516Z,9.20
2023-04-19T10:27:12.386Z,9.20
2023-04-19T10:29:56.976Z,9.30
2023-04-19T10:32:26.276Z,9.20
2023-04-19T10:34:55.764Z,9.20
2023-04-19T10:37:26.201Z,9.30
2023-04-19T10:39:54.268Z,9.30
2023-04-19T10:42:22.405Z,9.40
2023-04-19T10:45:27.346Z,9.40
2023-04-19T10:47:55.466Z,9.40
2023-04-19T10:50:25.238Z,9.50
2023-04-19T10:52:53.236Z,9.50
2023-04-19T10:55:21.438Z,9.50
2023-04-19T10:58:06.682Z,9.60
2023-04-19T11:00:36.235Z,9.70
2023-04-19T11:03:50.283Z,9.70
2023-04-19T11:06:23.005Z,9.80
2023-04-19T11:08:51.057Z,9.80
2023-04-19T11:11:19.554Z,9.90
2023-04-19T11:13:49.187Z,9.80
2023-04-19T11:16:19.415Z,9.80
2023-04-19T11:18:47.752Z,9.70
2023-04-19T11:21:16.396Z,9.70
2023-04-19T11:23:47.875Z,9.60
2023-04-19T11:26:15.968Z,9.60
2023-04-19T11:28:46.134Z,9.50
2023-04-19T11:31:14.335Z,9.40
2023-04-19T11:33:45.015Z,9.40
2023-04-19T11:36:14.180Z,9.40
2023-04-19T11:38:42.165Z,9.30
2023-04-19T11:41:11.686Z,9.30
2023-04-19T11:43:40.598Z,9.30
2023-04-19T11:46:11.265Z,9.30
2023-04-19T11:48:39.673Z,9.30
2023-04-19T11:51:07.933Z,9.20
2023-04-19T11:53:36.140Z,9.10
2023-04-19T11:56:07.300Z,9.10
2023-04-19T11:58:40.213Z,9.10
2023-04-19T12:01:10.750Z,9.00
2023-04-19T12:03:43.154Z,9.10
2023-04-19T12:06:16.459Z,9.00
2023-04-19T12:08:47.406Z,9.00
2023-04-19T12:11:16.558Z,9.00
2023-04-19T12:13:46.392Z,9.00
2023-04-19T12:16:14.763Z,9.10
2023-04-19T12:18:48.673Z,9.20
2023-04-19T12:21:31.717Z,9.10
2023-04-19T12:24:01.304Z,9.10
2023-04-19T12:26:31.039Z,9.10
2023-04-19T12:29:02.600Z,9.10
2023-04-19T12:31:33.839Z,9.10
2023-04-19T12:34:01.885Z,9.10
2023-04-19T12:36:30.553Z,9.00
2023-04-19T12:38:58.932Z,9.00
2023-04-19T12:41:27.036Z,9.00
2023-04-19T12:43:55.040Z,9.10
2023-04-19T12:46:24.413Z,9.10
2023-04-19T12:48:52.424Z,9.10
2023-04-19T12:51:20.462Z,9.10
2023-04-19T12:53:50.103Z,9.10
2023-04-19T12:56:18.626Z,9.20
2023-04-19T12:58:46.620Z,9.20
2023-04-19T13:01:14.857Z,9.30
2023-04-19T13:03:44.569Z,9.30
2023-04-19T13:06:14.827Z,9.40
2023-04-19T13:08:46.573Z,9.40
2023-04-19T13:11:17.662Z,9.40
2023-04-19T13:13:45.844Z,9.30
2023-04-19T13:16:13.849Z,9.40
2023-04-19T13:18:41.907Z,9.30
2023-04-19T13:21:11.580Z,9.30
2023-04-19T13:23:39.733Z,9.30
2023-04-19T13:26:08.138Z,9.30
2023-04-19T13:28:36.814Z,9.40
2023-04-19T13:31:05.859Z,9.40
2023-04-19T13:33:34.156Z,9.40
2023-04-19T13:36:02.345Z,9.40
2023-04-19T13:38:31.867Z,9.40
2023-04-19T13:41:00.777Z,9.40
2023-04-19T13:43:28.775Z,9.30
2023-04-19T13:45:56.853Z,9.30
2023-04-19T13:48:27.445Z,9.30
2023-04-19T13:50:56.045Z,9.40
2023-04-19T13:53:25.169Z,9.50
2023-04-19T13:55:56.927Z,9.50
2023-04-19T13:58:25.927Z,9.60
2023-04-19T14:00:54.778Z,9.60
2023-04-19T14:03:24.068Z,9.70
2023-04-19T14:05:52.202Z,9.70
2023-04-19T14:08:20.983Z,9.70
2023-04-19T14:10:50.049Z,9.80
2023-04-19T14:13:19.444Z,9.80
2023-04-19T14:15:47.479Z,9.80
2023-04-19T14:18:15.527Z,9.80
2023-04-19T14:20:43.589Z,9.80
2023-04-19T14:23:11.968Z,9.80
2023-04-19T14:25:40.156Z,9.90
2023-04-19T14:28:08.369Z,9.90
2023-04-19T14:30:37.822Z,9.90
2023-04-19T14:33:05.960Z,9.90
2023-04-19T14:35:33.955Z,9.90
2023-04-19T14:38:02.045Z,9.90
2023-04-19T14:40:30.036Z,9.80
2023-04-19T14:42:58.023Z,9.80
2023-04-19T14:45:26.036Z,9.80
2023-04-19T14:47:55.407Z,9.80
2023-04-19T14:50:23.443Z,9.70
2023-04-19T14:52:51.466Z,9.80
2023-04-19T14:55:19.726Z,9.70
2023-04-19T14:57:47.686Z,9.70
2023-04-19T15:00:16.625Z,9.70
2023-04-19T15:02:44.848Z,9.70
2023-04-19T15:05:14.572Z,9.70
2023-04-19T15:07:42.813Z,9.70
2023-04-19T15:10:11.512Z,9.70
2023-04-19T15:12:39.645Z,9.70
2023-04-19T15:15:08.959Z,9.70
2023-04-19T15:17:37.353Z,9.70
2023-04-19T15:20:06.091Z,9.70
2023-04-19T15:22:35.641Z,9.70
2023-04-19T15:25:03.895Z,9.70
2023-04-19T15:27:31.973Z,9.70
2023-04-19T15:30:00.385Z,9.70
2023-04-19T15:32:31.103Z,9.80
2023-04-19T15:34:59.135Z,9.80
2023-04-19T15:37:27.631Z,9.90
2023-04-19T15:39:57.052Z,9.80
2023-04-19T15:42:25.187Z,9.90
2023-04-19T15:44:53.265Z,9.90
2023-04-19T15:47:21.252Z,9.90
2023-04-19T15:49:49.543Z,10.00
2023-04-19T15:52:19.040Z,10.00
2023-04-19T15:54:47.100Z,10.00
2023-04-19T15:57:16.676Z,10.00
2023-04-19T15:59:44.845Z,10.10
2023-04-19T16:02:13.071Z,10.10
2023-04-19T16:04:41.283Z,10.00
2023-04-19T16:07:09.359Z,10.00
2023-04-19T16:09:37.329Z,10.00
2023-04-19T16:12:05.711Z,9.90
2023-04-19T16:14:35.017Z,9.90
2023-04-19T16:17:03.021Z,9.80
2023-04-19T16:19:31.056Z,9.80
2023-04-19T16:22:02.040Z,9.80
2023-04-19T16:24:29.984Z,9.70
2023-04-19T16:26:58.882Z,9.70
2023-04-19T16:29:27.000Z,9.70
2023-04-19T16:31:56.399Z,9.70
2023-04-19T16:34:25.622Z,9.70
2023-04-19T16:36:54.261Z,9.80
2023-04-19T16:39:22.236Z,9.70
2023-04-19T16:41:50.557Z,9.70
2023-04-19T16:44:18.556Z,9.70
2023-04-19T16:46:46.557Z,9.70
2023-04-19T16:49:16.389Z,9.70
2023-04-19T16:51:44.447Z,9.70
2023-04-19T16:54:12.411Z,9.60
2023-04-19T16:56:40.479Z,9.60
2023-04-19T16:59:08.479Z,9.60
2023-04-19T17:01:36.779Z,9.60
2023-04-19T17:04:04.986Z,9.50
2023-04-19T17:06:34.719Z,9.50
2023-04-19T17:09:05.108Z,9.50
2023-04-19T17:11:33.319Z,9.40
2023-04-19T17:14:01.638Z,9.50
2023-04-19T17:16:29.636Z,9.50
2023-04-19T17:18:57.959Z,9.50
2023-04-19T17:21:26.047Z,9.50
2023-04-19T17:23:55.465Z,9.50
2023-04-19T17:26:23.891Z,9.50
2023-04-19T17:28:51.904Z,9.50
2023-04-19T17:31:19.944Z,9.40
2023-04-19T17:33:48.055Z,9.40
2023-04-19T17:36:16.019Z,9.40
2023-04-19T17:38:44.237Z,9.30
2023-04-19T17:41:16.542Z,9.30
2023-04-19T17:43:44.756Z,9.30
2023-04-19T17:46:13.852Z,9.30
2023-04-19T17:48:42.195Z,9.30
2023-04-19T17:51:10.291Z,9.30
2023-04-19T17:53:38.361Z,9.20
2023-04-19T17:56:06.595Z,9.20
2023-04-19T17:58:36.510Z,9.20
2023-04-19T18:01:06.884Z,9.20
2023-04-19T18:03:35.055Z,9.20
2023-04-19T18:06:03.253Z,9.10
2023-04-19T18:08:31.277Z,9.20
2023-04-19T18:10:59.271Z,9.10
2023-04-19T18:13:27.626Z,9.10
2023-04-19T18:15:57.161Z,9.10
2023-04-19T18:18:25.237Z,9.10
2023-04-19T18:20:53.256Z,9.10
2023-04-19T18:23:21.419Z,9.10
2023-04-19T18:25:55.003Z,9.10
2023-04-19T18:28:23.284Z,9.10
2023-04-19T18:30:51.541Z,9.10
2023-04-19T18:33:21.194Z,9.00
2023-04-19T18:35:49.362Z,9.00
2023-04-19T18:38:17.378Z,9.00
2023-04-19T18:40:45.371Z,9.00
2023-04-19T18:43:13.454Z,9.00
2023-04-19T18:45:41.564Z,9.00
2023-04-19T18:48:09.853Z,9.00
2023-04-19T18:50:39.623Z,9.00
2023-04-19T18:53:07.577Z,9.00
2023-04-19T18:55:35.776Z,9.00
2023-04-19T18:58:03.991Z,9.00
2023-04-19T19:00:32.162Z,9.00
2023-04-19T19:03:01.999Z,9.00
2023-04-19T19:05:31.479Z,9.00
2023-04-19T19:08:01.419Z,9.00
2023-04-19T19:13:00.621Z,8.90
2023-04-19T19:15:29.033Z,8.90
2023-04-19T19:17:57.352Z,9.00
2023-04-19T19:20:26.252Z,9.00
2023-04-19T19:22:54.690Z,9.00
2023-04-19T19:25:24.419Z,9.00
2023-04-19T19:30:29.486Z,9.00
2023-04-19T19:32:57.799Z,9.00
2023-04-19T19:35:25.926Z,9.00
2023-04-19T19:37:54.068Z,9.10
2023-04-19T19:40:23.591Z,9.00
2023-04-19T19:42:51.583Z,9.10
2023-04-19T19:45:19.824Z,9.00
2023-04-19T19:47:49.571Z,9.00
2023-04-19T19:52:51.492Z,9.00
2023-04-19T19:55:19.491Z,9.00
2023-04-19T19:58:25.767Z,9.00
2023-04-19T20:00:46.322Z,9.00
2023-04-19T20:03:28.330Z,9.00
2023-04-19T20:06:05.490Z,8.90
2023-04-19T20:08:47.503Z,8.90
2023-04-19T20:11:15.653Z,8.90
2023-04-19T20:13:45.917Z,8.90
2023-04-19T20:16:14.734Z,8.90
2023-04-19T20:18:44.059Z,8.90
2023-04-19T20:21:12.085Z,8.90
2023-04-19T20:23:40.749Z,8.90
2023-04-19T20:26:08.915Z,8.90
2023-04-19T20:28:36.920Z,8.90
2023-04-19T20:31:06.337Z,8.90
2023-04-19T20:33:34.480Z,8.90
2023-04-19T20:36:03.738Z,8.90
2023-04-19T20:38:34.559Z,8.90
2023-04-19T20:41:03.116Z,8.90
2023-04-19T20:43:31.915Z,8.90
2023-04-19T20:45:59.991Z,8.90
2023-04-19T20:48:29.429Z,8.90
2023-04-19T20:50:57.435Z,8.90
2023-04-19T20:53:25.528Z,8.90
2023-04-19T20:55:53.633Z,8.90
2023-04-19T20:58:21.798Z,8.90
2023-04-19T21:00:50.813Z,8.90
2023-04-19T21:03:19.098Z,8.90
2023-04-19T21:05:48.539Z,8.90
2023-04-19T21:08:18.363Z,8.90
2023-04-19T21:10:46.374Z,8.90
2023-04-19T21:13:14.331Z,8.90
2023-04-19T21:15:42.559Z,8.90
2023-04-19T21:18:10.958Z,8.90
2023-04-19T21:20:39.617Z,8.90
2023-04-19T21:23:08.944Z,8.90
2023-04-19T21:25:37.198Z,8.90
2023-04-19T21:28:05.205Z,8.90
2023-04-19T21:30:33.537Z,8.90
2023-04-19T21:33:01.800Z,8.90
2023-04-19T21:35:30.293Z,8.90
2023-04-19T21:37:58.229Z,8.90
2023-04-19T21:40:27.899Z,8.90
2023-04-19T21:42:55.951Z,8.80
2023-04-19T21:45:24.163Z,8.80
2023-04-19T21:47:52.344Z,8.70
2023-04-19T21:50:20.707Z,8.70
2023-04-19T21:52:48.729Z,8.70
2023-04-19T21:55:16.844Z,8.60
2023-04-19T21:57:46.172Z,8.60
2023-04-19T22:00:16.102Z,8.50
2023-04-19T22:02:44.492Z,8.50
2023-04-19T22:05:13.632Z,8.50
2023-04-19T22:07:42.181Z,8.60
2023-04-19T22:10:11.986Z,8.50
2023-04-19T22:12:51.292Z,8.60
2023-04-19T22:15:27.963Z,8.50
2023-04-19T22:17:57.479Z,8.50
2023-04-19T22:20:26.859Z,8.60
2023-04-19T22:22:55.136Z,8.50
2023-04-19T22:25:23.256Z,8.50
2023-04-19T22:27:51.509Z,8.60
2023-04-19T22:30:19.585Z,8.60
2023-04-19T22:32:49.259Z,8.60
2023-04-19T22:35:17.529Z,8.60
2023-04-19T22:37:45.598Z,8.60
2023-04-19T22:40:14.282Z,8.70
2023-04-19T22:42:42.402Z,8.70
2023-04-19T22:45:11.360Z,8.70
2023-04-19T22:47:39.508Z,8.70
2023-04-19T22:50:10.237Z,8.70
2023-04-19T22:52:38.673Z,8.70
2023-04-19T22:55:07.476Z,8.70
2023-04-19T22:57:35.575Z,8.70
2023-04-19T23:00:05.357Z,8.80
2023-04-19T23:02:33.487Z,8.80
2023-04-19T23:05:02.252Z,8.80
2023-04-19T23:07:32.513Z,8.80
2023-04-19T23:10:01.296Z,8.80
2023-04-19T23:12:31.010Z,8.80
2023-04-19T23:14:59.459Z,8.80
2023-04-19T23:17:27.682Z,8.90
2023-04-19T23:19:55.885Z,8.90
2023-04-19T23:22:23.930Z,8.90
2023-04-19T23:24:53.297Z,8.90
2023-04-19T23:27:21.649Z,8.90
2023-04-19T23:29:49.832Z,8.90
2023-04-19T23:32:18.172Z,9.00
2023-04-19T23:34:46.243Z,8.90
2023-04-19T23:37:14.782Z,9.00
2023-04-19T23:39:42.773Z,8.90
2023-04-19T23:42:12.335Z,9.00
2023-04-19T23:44:42.202Z,9.00
2023-04-19T23:47:11.436Z,9.00
2023-04-19T23:49:39.455Z,9.00
2023-04-19T23:52:07.570Z,9.00
2023-04-19T23:54:35.737Z,9.00
2023-04-19T23:57:03.817Z,9.00
2023-04-19T23:59:33.944Z,9.10
